Time;durP1;ratioP1;P1;durP2;ratioP2;P2;SDS_P1;SDS_P2;PMS_P1;PMS_P2;Temp;Humidity;BMP_temperature;BMP_pressure;BME280_temperature;BME280_humidity;BME280_pressure;Samples;Min_cycle;Max_cycle;Signal;HPM_P1;HPM_P2
2022/04/26 03:37:08;;;;;;;6.82;2.95;;;8.90;99.90;;;;;;5090733;28;20109;-30
2022/04/26 03:39:34;;;;;;;6.75;3.70;;;8.90;99.90;;;;;;5092684;28;20028;-28
2022/04/26 03:42:02;;;;;;;7.60;4.03;;;8.80;99.90;;;;;;5092491;28;20031;-35
2022/04/26 03:44:28;;;;;;;9.35;3.58;;;8.80;99.90;;;;;;5092922;28;20024;-35
2022/04/26 03:46:54;;;;;;;7.65;3.20;;;8.80;99.90;;;;;;5091725;28;20491;-29
2022/04/26 03:49:24;;;;;;;7.95;3.70;;;8.90;99.90;;;;;;5095322;28;20032;-30
2022/04/26 03:51:52;;;;;;;10.10;3.42;;;8.80;99.90;;;;;;5091047;28;20451;-28
2022/04/26 03:54:18;;;;;;;9.93;5.28;;;8.80;99.90;;;;;;5092894;28;20039;-28
2022/04/26 03:56:44;;;;;;;6.85;3.20;;;8.80;99.90;;;;;;5092714;28;20476;-28
2022/04/26 03:59:10;;;;;;;4.97;3.05;;;8.80;99.90;;;;;;5095412;28;20095;-29
2022/04/26 04:01:35;;;;;;;9.95;4.63;;;8.80;99.90;;;;;;5089542;28;20480;-29
2022/04/26 04:04:01;;;;;;;12.48;4.13;;;8.80;99.90;;;;;;5091922;28;20094;-29
2022/04/26 04:06:26;;;;;;;5.13;3.63;;;8.80;99.90;;;;;;5089392;28;20047;-28
2022/04/26 04:08:52;;;;;;;5.13;4.22;;;8.80;99.90;;;;;;5095169;28;20020;-28
2022/04/26 04:11:18;;;;;;;9.52;4.57;;;8.80;99.90;;;;;;5092828;28;20024;-28
2022/04/26 04:13:43;;;;;;;7.32;4.10;;;8.80;99.90;;;;;;5093259;28;20032;-29
2022/04/26 04:16:09;;;;;;;8.75;4.00;;;8.80;99.90;;;;;;5092190;28;20454;-32
2022/04/26 04:21:19;;;;;;;14.25;3.80;;;8.80;99.90;;;;;;5087760;28;20168;-29
2022/04/26 04:23:45;;;;;;;11.30;4.43;;;8.70;99.90;;;;;;5092037;28;20032;-28
2022/04/26 04:26:10;;;;;;;10.25;4.20;;;8.80;99.90;;;;;;5092742;28;20027;-28
2022/04/26 04:28:36;;;;;;;10.20;4.78;;;8.70;99.90;;;;;;5108172;28;20043;-28
2022/04/26 04:31:02;;;;;;;7.38;4.35;;;8.70;99.90;;;;;;5101388;28;20395;-29
2022/04/26 04:33:28;;;;;;;8.25;3.85;;;8.70;99.90;;;;;;5088314;28;20047;-39
2022/04/26 04:35:54;;;;;;;12.35;3.80;;;8.60;99.90;;;;;;5090917;28;20047;-29
2022/04/26 04:38:20;;;;;;;12.55;4.13;;;8.60;99.90;;;;;;5103647;28;20024;-29
2022/04/26 04:40:46;;;;;;;10.40;4.07;;;8.70;99.90;;;;;;5104210;28;20020;-30
2022/04/26 04:43:12;;;;;;;12.02;3.92;;;8.70;99.90;;;;;;5091830;28;20081;-33
2022/04/26 04:45:39;;;;;;;6.60;3.97;;;8.70;99.90;;;;;;5092238;28;20498;-29
2022/04/26 04:48:05;;;;;;;7.68;4.22;;;8.70;99.90;;;;;;5090177;28;20086;-28
2022/04/26 04:50:34;;;;;;;8.73;3.63;;;8.70;99.90;;;;;;5090896;28;20028;-33
2022/04/26 04:53:00;;;;;;;6.85;4.57;;;8.70;99.90;;;;;;5091901;28;20074;-29
2022/04/26 04:55:26;;;;;;;9.38;4.10;;;8.80;99.90;;;;;;5092637;28;20024;-29
2022/04/26 04:57:51;;;;;;;7.57;4.68;;;8.70;99.90;;;;;;5100240;28;20085;-30
2022/04/26 05:00:17;;;;;;;13.13;4.05;;;8.80;99.90;;;;;;5113164;28;20391;-29
2022/04/26 05:02:43;;;;;;;8.02;4.05;;;8.80;99.90;;;;;;5098964;28;20480;-29
2022/04/26 05:05:09;;;;;;;8.10;3.85;;;8.80;99.90;;;;;;5091973;28;20028;-28
2022/04/26 05:07:36;;;;;;;9.50;3.67;;;8.80;99.90;;;;;;5090915;28;20032;-29
2022/04/26 05:10:02;;;;;;;15.40;4.40;;;8.80;99.90;;;;;;5089060;28;20031;-30
2022/04/26 05:12:27;;;;;;;13.05;3.50;;;8.80;99.90;;;;;;5087579;28;20426;-28
2022/04/26 05:14:53;;;;;;;5.72;3.80;;;8.80;99.90;;;;;;5092695;28;20023;-29
2022/04/26 05:17:18;;;;;;;9.30;4.22;;;8.80;99.90;;;;;;5089774;28;20495;-32
2022/04/26 05:19:44;;;;;;;8.02;3.30;;;8.80;99.90;;;;;;5092700;28;20032;-28
2022/04/26 05:22:10;;;;;;;7.53;3.85;;;8.80;99.90;;;;;;5091406;28;20031;-29
2022/04/26 05:24:56;;;;;;;7.50;4.20;;;8.90;99.90;;;;;;5093980;28;20476;-34
2022/04/26 05:27:34;;;;;;;10.30;3.72;;;8.90;99.90;;;;;;5094835;28;20024;-29
2022/04/26 05:30:00;;;;;;;11.68;4.20;;;8.90;99.90;;;;;;5094089;28;20032;-28
2022/04/26 05:32:28;;;;;;;9.07;3.83;;;8.90;99.90;;;;;;5092311;28;20028;-29
2022/04/26 05:34:58;;;;;;;7.45;3.15;;;8.90;99.90;;;;;;5081924;28;20107;-28
2022/04/26 05:37:25;;;;;;;6.40;3.72;;;8.90;99.90;;;;;;5094220;28;20048;-28
2022/04/26 05:39:50;;;;;;;11.98;4.72;;;8.90;99.90;;;;;;5092613;28;20158;-30
2022/04/26 05:42:16;;;;;;;19.70;3.97;;;8.90;99.90;;;;;;5093559;28;20111;-30
2022/04/26 05:44:42;;;;;;;6.82;3.58;;;9.00;99.90;;;;;;5089913;28;20484;-28
2022/04/26 05:47:08;;;;;;;9.88;4.03;;;9.00;99.90;;;;;;5092863;28;20028;-28
2022/04/26 05:49:35;;;;;;;6.00;3.47;;;9.10;99.90;;;;;;5094923;28;20468;-30
2022/04/26 05:52:01;;;;;;;6.05;3.80;;;9.10;99.90;;;;;;5095028;28;20099;-30
2022/04/26 05:54:27;;;;;;;15.60;3.72;;;9.10;99.90;;;;;;5094514;28;20388;-35
2022/04/26 05:56:53;;;;;;;11.38;4.18;;;9.20;99.90;;;;;;5094474;28;20028;-28
2022/04/26 05:59:20;;;;;;;3.15;2.75;;;9.10;99.90;;;;;;5095852;28;20059;-29
2022/04/26 06:01:46;;;;;;;8.82;3.50;;;9.10;99.90;;;;;;5091327;28;20476;-28
2022/04/26 06:04:12;;;;;;;10.13;3.08;;;9.10;99.90;;;;;;5087214;28;20051;-30
2022/04/26 06:06:37;;;;;;;6.78;3.10;;;9.20;99.90;;;;;;5094424;28;20031;-29
2022/04/26 06:09:04;;;;;;;13.27;3.88;;;9.20;99.90;;;;;;5093099;28;20031;-28
2022/04/26 06:11:29;;;;;;;8.77;3.45;;;9.20;99.90;;;;;;5095252;28;20522;-28
2022/04/26 06:13:55;;;;;;;5.35;2.78;;;9.20;99.90;;;;;;5095345;28;20048;-35
2022/04/26 06:16:21;;;;;;;19.40;3.25;;;9.10;99.90;;;;;;5093026;28;20024;-28
2022/04/26 06:18:47;;;;;;;5.57;3.25;;;9.10;99.90;;;;;;5092480;28;20031;-45
2022/04/26 06:21:12;;;;;;;11.63;2.72;;;9.20;99.90;;;;;;5091146;28;20030;-31
2022/04/26 06:23:39;;;;;;;12.63;4.13;;;9.10;99.90;;;;;;5094481;28;20031;-36
2022/04/26 06:26:05;;;;;;;11.10;2.83;;;9.00;99.90;;;;;;5092803;28;20030;-35
2022/04/26 06:28:30;;;;;;;9.32;2.95;;;9.00;99.90;;;;;;5093735;28;20024;-30
2022/04/26 06:30:57;;;;;;;3.35;2.35;;;9.00;99.90;;;;;;5091767;28;20031;-35
2022/04/26 06:33:22;;;;;;;7.93;3.40;;;9.00;99.90;;;;;;5092355;28;20472;-35
2022/04/26 06:35:48;;;;;;;11.77;3.75;;;9.00;99.90;;;;;;5091749;28;20024;-34
2022/04/26 06:38:16;;;;;;;13.68;3.30;;;9.00;99.90;;;;;;5091518;28;20153;-34
2022/04/26 06:40:42;;;;;;;9.90;2.22;;;9.00;99.90;;;;;;5092819;28;20017;-35
2022/04/26 06:43:10;;;;;;;8.68;2.83;;;9.10;99.90;;;;;;5091959;28;20361;-34
2022/04/26 06:45:36;;;;;;;6.45;3.10;;;9.10;99.90;;;;;;5092098;28;20012;-35
2022/04/26 06:48:01;;;;;;;13.38;3.03;;;9.10;99.90;;;;;;5084230;28;20012;-35
2022/04/26 06:50:28;;;;;;;15.18;3.20;;;9.10;99.90;;;;;;5092972;28;20040;-34
2022/04/26 06:52:53;;;;;;;7.32;2.67;;;9.20;99.90;;;;;;5097628;28;20028;-34
2022/04/26 06:55:19;;;;;;;10.23;2.85;;;9.20;99.90;;;;;;5094483;28;20476;-35
2022/04/26 06:57:46;;;;;;;9.65;2.45;;;9.20;99.90;;;;;;5089247;28;20028;-42
2022/04/26 07:00:12;;;;;;;4.72;2.35;;;9.10;99.90;;;;;;5097560;28;20028;-34
2022/04/26 07:02:38;;;;;;;3.35;2.10;;;9.20;99.90;;;;;;5101364;27;20043;-35
2022/04/26 07:05:04;;;;;;;3.75;1.83;;;9.20;99.90;;;;;;5091286;28;20031;-34
2022/04/26 07:07:30;;;;;;;9.57;2.40;;;9.10;99.90;;;;;;5095497;28;20032;-33
2022/04/26 07:09:55;;;;;;;11.68;3.40;;;9.30;99.90;;;;;;5100473;28;20023;-35
2022/04/26 07:12:21;;;;;;;4.18;2.30;;;9.30;99.90;;;;;;5087892;28;21125;-35
2022/04/26 07:14:46;;;;;;;10.30;3.55;;;9.30;99.90;;;;;;5090863;28;20052;-34
2022/04/26 07:17:12;;;;;;;5.90;2.30;;;9.30;99.90;;;;;;5085927;28;20032;-30
2022/04/26 07:19:39;;;;;;;5.45;2.50;;;9.40;99.90;;;;;;5103936;28;20053;-33
2022/04/26 07:22:07;;;;;;;11.98;3.10;;;9.40;99.90;;;;;;5092365;28;20127;-36
2022/04/26 07:24:33;;;;;;;16.02;3.00;;;9.40;99.90;;;;;;5101906;28;20065;-36
2022/04/26 07:26:59;;;;;;;8.93;2.72;;;9.40;99.90;;;;;;5095888;28;20032;-34
2022/04/26 07:29:25;;;;;;;4.65;2.88;;;9.50;99.90;;;;;;5091522;28;20024;-35
2022/04/26 07:31:51;;;;;;;9.48;3.17;;;9.70;99.90;;;;;;5099287;28;20085;-34
2022/04/26 07:34:23;;;;;;;4.78;2.47;;;9.80;99.90;;;;;;5093920;28;20066;-36
2022/04/26 07:36:54;;;;;;;6.80;2.72;;;9.90;99.90;;;;;;5096605;28;20093;-35
2022/04/26 07:39:20;;;;;;;6.35;2.92;;;9.90;99.90;;;;;;5094400;28;20111;-33
2022/04/26 07:41:47;;;;;;;12.43;3.30;;;10.00;99.90;;;;;;5093358;28;20091;-34
2022/04/26 07:44:14;;;;;;;6.15;2.03;;;10.20;99.90;;;;;;5090635;28;20042;-30
2022/04/26 07:46:42;;;;;;;7.45;2.90;;;10.30;99.90;;;;;;5094946;28;20063;-35
2022/04/26 07:49:10;;;;;;;5.80;3.00;;;10.40;99.90;;;;;;5093627;28;20035;-31
2022/04/26 07:51:36;;;;;;;7.65;2.53;;;10.50;99.90;;;;;;5098224;28;20015;-36
2022/04/26 07:54:02;;;;;;;5.90;2.40;;;10.60;99.90;;;;;;5094202;28;20031;-35
2022/04/26 07:56:28;;;;;;;7.22;2.30;;;10.90;99.90;;;;;;5092779;28;20027;-34
2022/04/26 07:58:54;;;;;;;8.75;2.28;;;11.00;99.90;;;;;;5095170;28;20486;-33
2022/04/26 08:01:20;;;;;;;3.75;1.92;;;11.00;99.90;;;;;;5095533;28;20514;-36
2022/04/26 08:03:46;;;;;;;6.43;2.10;;;11.00;99.90;;;;;;5091840;28;20110;-34
2022/04/26 08:06:12;;;;;;;6.95;1.98;;;10.90;99.90;;;;;;5093983;28;20028;-35
2022/04/26 08:08:39;;;;;;;4.10;2.08;;;10.80;99.90;;;;;;5093294;28;20040;-34
2022/04/26 08:13:49;;;;;;;5.10;2.65;;;11.00;99.90;;;;;;5094720;28;20031;-35
2022/04/26 08:16:15;;;;;;;9.20;2.55;;;11.10;99.90;;;;;;5094420;28;20028;-33
2022/04/26 08:18:43;;;;;;;9.98;3.33;;;11.00;99.90;;;;;;5097479;28;20106;-34
2022/04/26 08:21:09;;;;;;;7.32;2.53;;;11.10;99.90;;;;;;5090761;28;20028;-36
2022/04/26 08:27:22;;;;;;;6.55;2.33;;;11.20;99.90;;;;;;5088512;28;20024;-30
2022/04/26 08:29:06;;;;;;;10.00;2.47;;;11.50;99.90;;;;;;5098894;28;20027;-35
2022/04/26 08:31:32;;;;;;;3.75;1.77;;;11.80;99.90;;;;;;5094821;28;20020;-34
2022/04/26 08:33:58;;;;;;;6.43;2.13;;;12.00;99.90;;;;;;5090212;28;20031;-37
2022/04/26 08:36:24;;;;;;;6.85;2.15;;;12.00;99.90;;;;;;5093266;28;20094;-36
2022/04/26 08:38:52;;;;;;;4.75;2.08;;;11.90;99.90;;;;;;5093544;28;20055;-29
2022/04/26 08:41:22;;;;;;;6.43;2.10;;;12.00;99.90;;;;;;5092348;28;20605;-30
2022/04/26 08:43:48;;;;;;;6.05;2.13;;;12.10;99.90;;;;;;5092868;28;20020;-31
2022/04/26 08:46:13;;;;;;;5.28;2.92;;;12.40;99.90;;;;;;5097309;28;20030;-33
2022/04/26 08:51:23;;;;;;;8.98;2.88;;;12.40;99.90;;;;;;5096945;28;20094;-30
2022/04/26 08:53:49;;;;;;;5.78;2.03;;;12.60;99.90;;;;;;5096428;28;20163;-36
2022/04/26 08:56:16;;;;;;;2.42;1.92;;;12.60;99.90;;;;;;5097890;28;20035;-29
2022/04/26 08:58:42;;;;;;;3.30;2.05;;;12.80;99.90;;;;;;5091611;28;20040;-29
2022/04/26 09:01:13;;;;;;;5.03;1.95;;;12.70;99.90;;;;;;5092057;28;20476;-30
2022/04/26 09:03:56;;;;;;;8.50;2.55;;;12.30;99.90;;;;;;5089830;28;20032;-37
2022/04/26 09:06:25;;;;;;;4.57;2.42;;;12.20;99.90;;;;;;5088097;28;20023;-31
2022/04/26 09:09:04;;;;;;;3.80;2.03;;;11.80;99.90;;;;;;5107940;28;20031;-29
2022/04/26 09:11:34;;;;;;;7.40;2.33;;;11.70;99.90;;;;;;5097144;28;20040;-30
2022/04/26 09:14:01;;;;;;;5.47;2.00;;;11.60;99.90;;;;;;5098092;28;20067;-30
2022/04/26 09:16:26;;;;;;;2.72;2.15;;;11.80;99.90;;;;;;5094154;28;20460;-30
2022/04/26 09:18:56;;;;;;;4.38;1.90;;;12.10;99.90;;;;;;5101332;28;20026;-37
2022/04/26 09:21:26;;;;;;;6.00;1.88;;;12.40;99.90;;;;;;5103472;28;20063;-33
2022/04/26 09:23:56;;;;;;;2.95;2.08;;;12.70;99.90;;;;;;5101154;28;20368;-37
2022/04/26 09:26:21;;;;;;;5.47;2.30;;;13.10;99.90;;;;;;5101121;28;20077;-30
2022/04/26 09:28:50;;;;;;;2.95;2.00;;;13.30;99.90;;;;;;5099127;28;20028;-30
2022/04/26 09:31:33;;;;;;;5.53;1.60;;;13.00;99.90;;;;;;5101011;28;20494;-31
2022/04/26 09:34:09;;;;;;;6.40;2.35;;;13.20;99.90;;;;;;5098159;28;20027;-35
2022/04/26 09:36:50;;;;;;;7.45;1.90;;;13.20;99.90;;;;;;5094578;27;20488;-31
2022/04/26 09:39:21;;;;;;;4.38;1.92;;;13.00;99.90;;;;;;5097779;28;20028;-33
2022/04/26 09:41:50;;;;;;;2.00;1.70;;;12.90;99.90;;;;;;5090832;28;20064;-30
2022/04/26 09:44:16;;;;;;;1.92;1.50;;;12.90;99.90;;;;;;5082074;28;20046;-31
2022/04/26 09:46:49;;;;;;;2.70;1.48;;;13.10;99.90;;;;;;5104862;28;20027;-30
2022/04/26 09:49:21;;;;;;;1.92;1.50;;;13.30;99.90;;;;;;5093271;28;20032;-35
2022/04/26 09:51:49;;;;;;;4.60;1.73;;;13.30;99.90;;;;;;5094067;28;20076;-30
2022/04/26 09:54:15;;;;;;;4.97;1.50;;;13.80;99.90;;;;;;5099774;28;20020;-32
2022/04/26 09:56:45;;;;;;;3.00;1.50;;;13.90;99.90;;;;;;5103346;28;20446;-38
2022/04/26 09:59:15;;;;;;;4.57;1.65;;;13.60;99.90;;;;;;5098208;28;20464;-29
2022/04/26 10:01:43;;;;;;;8.18;1.50;;;14.00;99.90;;;;;;5099297;28;20020;-31
2022/04/26 10:04:12;;;;;;;2.45;1.50;;;14.00;99.90;;;;;;5097216;28;20043;-30
2022/04/26 10:06:39;;;;;;;2.55;1.38;;;14.00;99.90;;;;;;5092021;28;20024;-33
2022/04/26 10:09:08;;;;;;;5.20;2.10;;;13.90;99.90;;;;;;5102428;28;20460;-31
2022/04/26 10:11:34;;;;;;;3.90;1.77;;;13.60;99.90;;;;;;5074199;28;20081;-30
2022/04/26 10:14:05;;;;;;;6.43;1.83;;;13.40;99.90;;;;;;5089539;28;20358;-29
2022/04/26 10:16:32;;;;;;;6.03;2.17;;;13.80;99.90;;;;;;5090025;28;20482;-36
2022/04/26 10:19:09;;;;;;;9.07;1.80;;;14.10;99.30;;;;;;5082801;28;20023;-35
2022/04/26 10:21:38;;;;;;;4.10;2.80;;;14.20;99.80;;;;;;5100127;28;20507;-30
2022/04/26 10:24:14;;;;;;;3.00;1.70;;;14.30;99.70;;;;;;5095975;28;20032;-34
2022/04/26 10:26:40;;;;;;;1.83;1.60;;;14.30;99.90;;;;;;5094796;28;20168;-37
2022/04/26 10:29:08;;;;;;;2.30;1.70;;;14.10;99.90;;;;;;5094889;28;20400;-37
2022/04/26 10:31:39;;;;;;;1.52;1.42;;;13.90;99.90;;;;;;5090265;28;20459;-29
2022/04/26 10:34:27;;;;;;;2.65;1.70;;;13.20;99.90;;;;;;5101678;28;20028;-28
2022/04/26 10:36:55;;;;;;;2.80;1.73;;;12.90;99.90;;;;;;5099141;28;20347;-45
2022/04/26 10:39:22;;;;;;;3.30;2.10;;;12.90;99.90;;;;;;5094241;28;20043;-29
2022/04/26 10:41:48;;;;;;;4.68;2.03;;;13.10;99.90;;;;;;5096781;28;20091;-30
2022/04/26 10:44:15;;;;;;;6.10;2.05;;;13.50;99.90;;;;;;5096099;28;20513;-37
2022/04/26 10:46:52;;;;;;;4.93;2.05;;;13.80;99.90;;;;;;5092775;28;20016;-32
2022/04/26 10:49:29;;;;;;;4.28;1.90;;;14.00;99.90;;;;;;5094677;28;20472;-31
2022/04/26 10:52:13;;;;;;;2.28;1.70;;;14.20;99.90;;;;;;5098365;28;20048;-31
2022/04/26 10:55:07;;;;;;;4.95;1.70;;;14.30;99.80;;;;;;5095356;28;20462;-35
2022/04/26 10:57:44;;;;;;;2.17;1.80;;;14.20;99.60;;;;;;5100277;28;20421;-30
2022/04/26 11:00:27;;;;;;;1.75;1.65;;;14.10;99.90;;;;;;5094118;28;20020;-33
2022/04/26 11:02:58;;;;;;;2.97;1.40;;;14.20;99.90;;;;;;5098133;28;20035;-35
2022/04/26 11:05:25;;;;;;;1.98;1.60;;;14.40;99.60;;;;;;5095421;28;20035;-34
2022/04/26 11:07:51;;;;;;;4.35;1.90;;;14.30;99.90;;;;;;5096497;28;20028;-40
2022/04/26 11:10:22;;;;;;;4.05;1.77;;;13.90;99.40;;;;;;5097713;28;20031;-29
2022/04/26 11:12:50;;;;;;;1.83;1.48;;;14.00;99.10;;;;;;5101810;28;20612;-28
2022/04/26 11:15:21;;;;;;;7.32;2.17;;;14.00;99.90;;;;;;5104622;28;20036;-30
2022/04/26 11:17:49;;;;;;;3.25;1.90;;;13.90;99.90;;;;;;5096988;28;20518;-30
2022/04/26 11:20:17;;;;;;;2.78;1.50;;;13.80;99.90;;;;;;5097212;28;20709;-32
2022/04/26 11:22:57;;;;;;;4.85;1.58;;;13.70;99.90;;;;;;5096967;28;20039;-31
2022/04/26 11:28:14;;;;;;;2.38;1.92;;;13.70;99.90;;;;;;5100152;28;20399;-34
2022/04/26 11:30:45;;;;;;;5.50;1.95;;;13.60;99.60;;;;;;5095090;28;20105;-29
2022/04/26 11:33:19;;;;;;;3.97;1.70;;;13.70;99.90;;;;;;5098438;28;20036;-30
2022/04/26 11:35:52;;;;;;;3.22;1.55;;;13.90;99.90;;;;;;5094774;28;20042;-45
2022/04/26 11:38:18;;;;;;;2.78;1.48;;;13.70;99.90;;;;;;5099070;28;20558;-32
2022/04/26 11:40:55;;;;;;;1.33;1.20;;;14.00;99.90;;;;;;5095488;28;20099;-37
2022/04/26 11:43:22;;;;;;;1.63;1.13;;;14.40;99.90;;;;;;5094105;28;20100;-31
2022/04/26 11:45:55;;;;;;;1.95;1.30;;;14.00;99.30;;;;;;5101547;28;20035;-30
2022/04/26 11:48:24;;;;;;;4.13;1.48;;;13.50;99.10;;;;;;5098040;28;20016;-35
2022/04/26 11:50:50;;;;;;;6.65;1.48;;;13.70;99.20;;;;;;5094244;28;20147;-29
2022/04/26 11:53:18;;;;;;;1.45;1.35;;;13.90;99.00;;;;;;5095174;28;20064;-33
2022/04/26 11:55:55;;;;;;;2.97;1.75;;;14.10;99.00;;;;;;5097360;28;20065;-34
2022/04/26 11:58:22;;;;;;;1.58;1.48;;;14.30;98.50;;;;;;5098534;28;20361;-37
2022/04/26 12:01:11;;;;;;;1.77;1.00;;;14.50;98.90;;;;;;5098501;28;20488;-34
2022/04/26 12:03:53;;;;;;;3.53;1.27;;;14.50;97.60;;;;;;5099196;28;20364;-37
2022/04/26 12:06:32;;;;;;;3.92;1.15;;;14.50;97.50;;;;;;5102289;28;20590;-33
2022/04/26 12:09:00;;;;;;;4.93;1.80;;;14.60;97.70;;;;;;5101555;28;20036;-29
2022/04/26 12:11:26;;;;;;;;;;;14.70;97.70;;;;;;5097147;28;20028;-30
2022/04/26 12:14:09;;;;;;;4.97;1.70;;;14.90;97.30;;;;;;5098600;28;21708;-30
2022/04/26 12:16:40;;;;;;;3.00;1.60;;;14.80;96.80;;;;;;5096938;28;20032;-29
2022/04/26 12:19:06;;;;;;;5.60;1.33;;;14.70;97.90;;;;;;5094550;28;20026;-45
2022/04/26 12:21:52;;;;;;;2.05;1.40;;;14.60;96.30;;;;;;5096981;28;20176;-29
2022/04/26 12:24:24;;;;;;;2.22;1.30;;;14.40;96.80;;;;;;5099726;28;20328;-32
2022/04/26 12:27:00;;;;;;;7.80;1.83;;;14.50;97.50;;;;;;5091086;28;20070;-37
2022/04/26 12:29:28;;;;;;;3.47;1.25;;;14.90;96.50;;;;;;5096000;28;20504;-29
2022/04/26 12:31:55;;;;;;;1.65;1.10;;;15.00;95.70;;;;;;5093366;28;20023;-30
2022/04/26 12:34:31;;;;;;;2.92;1.27;;;15.10;95.20;;;;;;5107415;28;20080;-33
2022/04/26 12:36:58;;;;;;;1.05;1.02;;;15.10;96.90;;;;;;5097779;28;20146;-30
2022/04/26 12:39:28;;;;;;;1.80;1.70;;;15.30;95.20;;;;;;5098195;28;20106;-32
2022/04/26 12:41:58;;;;;;;3.22;1.23;;;15.00;95.40;;;;;;5097180;28;20053;-32
2022/04/26 12:44:24;;;;;;;1.50;1.40;;;15.10;95.20;;;;;;5099557;28;20479;-37
2022/04/26 12:52:39;;;;;;;1.20;1.10;;;15.10;96.50;;;;;;5100731;28;20070;-29
2022/04/26 12:55:05;;;;;;;2.83;1.48;;;15.20;95.40;;;;;;5096982;28;20061;-40
2022/04/26 12:57:30;;;;;;;1.40;1.30;;;14.90;96.80;;;;;;5098531;28;20062;-35
2022/04/26 12:59:56;;;;;;;2.35;1.45;;;15.00;96.30;;;;;;5090021;28;20024;-29
2022/04/26 13:02:21;;;;;;;2.80;1.40;;;14.90;95.50;;;;;;5097050;28;20058;-35
2022/04/26 13:04:47;;;;;;;2.05;1.60;;;14.50;95.20;;;;;;5096525;28;20020;-29
2022/04/26 13:07:13;;;;;;;4.18;1.77;;;14.30;97.30;;;;;;5096462;28;20541;-32
2022/04/26 13:09:39;;;;;;;2.88;1.58;;;14.50;95.40;;;;;;5109193;28;20491;-35
2022/04/26 13:12:05;;;;;;;5.75;1.92;;;14.90;95.70;;;;;;5096240;28;20076;-33
2022/04/26 13:14:31;;;;;;;1.45;1.35;;;15.20;95.60;;;;;;5102039;28;20028;-30
2022/04/26 13:16:57;;;;;;;3.97;1.10;;;15.20;96.40;;;;;;5115510;28;20026;-43
2022/04/26 13:19:23;;;;;;;4.78;1.40;;;15.40;95.00;;;;;;5102652;28;20032;-35
2022/04/26 13:21:48;;;;;;;3.72;1.40;;;15.10;95.40;;;;;;5098313;28;20024;-35
2022/04/26 13:24:15;;;;;;;4.22;1.33;;;14.90;95.70;;;;;;5093688;28;20488;-36
2022/04/26 13:26:41;;;;;;;6.15;2.30;;;15.10;95.40;;;;;;5099405;28;20115;-36
2022/04/26 13:29:06;;;;;;;4.43;1.70;;;15.50;95.50;;;;;;5098488;28;20102;-37
2022/04/26 13:31:32;;;;;;;1.63;1.48;;;15.70;95.70;;;;;;5094428;28;20039;-35
2022/04/26 13:33:57;;;;;;;1.27;1.15;;;15.60;95.10;;;;;;5093534;28;21368;-36
2022/04/26 13:36:26;;;;;;;7.63;1.65;;;15.00;95.50;;;;;;5095765;28;20029;-38
2022/04/26 13:38:51;;;;;;;2.45;1.40;;;14.90;96.00;;;;;;5096495;28;20023;-36
2022/04/26 13:41:17;;;;;;;4.60;1.85;;;15.20;96.10;;;;;;5100931;28;20019;-37
2022/04/26 13:43:43;;;;;;;3.88;1.33;;;15.30;94.90;;;;;;5098804;28;20434;-36
2022/04/26 13:46:10;;;;;;;2.42;1.25;;;15.30;95.10;;;;;;5097159;28;20034;-35
2022/04/26 13:48:36;;;;;;;;;;;15.40;95.30;;;;;;5089627;28;20036;-36
2022/04/26 13:51:02;;;;;;;2.88;1.80;;;15.50;95.20;;;;;;5097650;28;20260;-37
2022/04/26 13:53:30;;;;;;;5.20;2.20;;;15.40;95.90;;;;;;5101020;28;20028;-37
2022/04/26 13:55:56;;;;;;;5.63;1.80;;;15.70;96.00;;;;;;5112853;28;20468;-36
2022/04/26 13:58:21;;;;;;;1.90;1.50;;;15.50;95.60;;;;;;5108309;28;20024;-37
2022/04/26 14:00:47;;;;;;;5.65;1.75;;;15.40;96.00;;;;;;5099552;28;20066;-60
2022/04/26 14:03:13;;;;;;;4.13;1.80;;;15.60;95.70;;;;;;5110005;28;20028;-37
2022/04/26 14:05:39;;;;;;;3.00;1.73;;;15.80;95.50;;;;;;5110335;28;20020;-37
2022/04/26 14:08:05;;;;;;;3.30;1.65;;;16.00;96.20;;;;;;5111892;28;20463;-37
2022/04/26 14:10:31;;;;;;;3.17;1.73;;;16.20;96.20;;;;;;5113208;28;20413;-36
2022/04/26 14:12:57;;;;;;;4.10;2.60;;;16.20;96.30;;;;;;5113971;28;20032;-36
2022/04/26 14:23:49;;;;;;;1.88;1.70;;;15.10;96.00;;;;;;5111067;28;20100;-35
2022/04/26 14:26:15;;;;;;;4.28;1.73;;;15.10;96.10;;;;;;5113246;28;20035;-38
2022/04/26 14:28:40;;;;;;;3.47;2.20;;;15.20;96.00;;;;;;5112774;28;20024;-35
2022/04/26 14:31:06;;;;;;;3.95;1.88;;;14.80;96.30;;;;;;5098388;28;20020;-37
2022/04/26 14:33:33;;;;;;;6.50;2.10;;;14.50;97.20;;;;;;5112421;28;20031;-36
2022/04/26 14:36:00;;;;;;;2.90;1.77;;;14.50;97.40;;;;;;5100709;28;20495;-35
2022/04/26 14:38:27;;;;;;;7.88;2.20;;;14.50;97.20;;;;;;5092479;28;20032;-34
2022/04/26 14:40:53;;;;;;;4.03;1.95;;;14.70;97.80;;;;;;5094156;28;20020;-36
2022/04/26 14:43:20;;;;;;;4.25;2.03;;;15.10;97.20;;;;;;5093201;28;20039;-36
2022/04/26 14:45:45;;;;;;;4.80;1.80;;;15.40;96.90;;;;;;5091463;28;20016;-35
2022/04/26 14:48:12;;;;;;;6.68;2.35;;;15.70;96.60;;;;;;5103604;28;20027;-35
2022/04/26 14:50:39;;;;;;;5.35;2.40;;;15.60;97.20;;;;;;5096802;28;20108;-38
2022/04/26 14:53:05;;;;;;;3.25;2.40;;;15.50;96.60;;;;;;5093804;28;20457;-36
2022/04/26 14:55:31;;;;;;;3.00;2.10;;;15.50;97.10;;;;;;5106614;27;20024;-36
2022/04/26 14:57:56;;;;;;;4.47;1.98;;;15.50;97.20;;;;;;5094752;28;20428;-34
2022/04/26 15:00:22;;;;;;;4.53;2.50;;;15.30;96.90;;;;;;5099608;28;20069;-36
2022/04/26 15:02:48;;;;;;;10.70;2.05;;;15.20;96.70;;;;;;5094385;28;20613;-32
2022/04/26 15:05:13;;;;;;;2.72;2.03;;;15.00;96.90;;;;;;5113180;28;20051;-36
2022/04/26 15:10:24;;;;;;;2.97;2.10;;;15.20;97.80;;;;;;5077626;28;20399;-41
2022/04/26 15:18:22;;;;;;;6.60;2.67;;;14.50;97.30;;;;;;5087385;28;20128;-37
2022/04/26 15:20:52;;;;;;;2.13;1.95;;;14.20;97.50;;;;;;5088027;28;20180;-37
2022/04/26 15:23:19;;;;;;;6.00;1.90;;;14.10;97.30;;;;;;5099314;28;20019;-38
2022/04/26 15:25:50;;;;;;;4.38;1.92;;;14.00;97.90;;;;;;5111050;28;20077;-37
2022/04/26 15:28:20;;;;;;;3.20;1.80;;;14.30;97.50;;;;;;5102138;28;20036;-35
2022/04/26 15:30:46;;;;;;;3.88;2.15;;;14.40;97.80;;;;;;5093886;28;20044;-35
2022/04/26 15:33:12;;;;;;;2.78;1.98;;;14.60;98.10;;;;;;5089443;28;20067;-36
2022/04/26 15:35:38;;;;;;;2.00;1.80;;;14.60;97.70;;;;;;5091686;28;20104;-33
2022/04/26 15:38:07;;;;;;;2.42;1.65;;;14.60;96.90;;;;;;5093504;28;20036;-37
2022/04/26 15:40:34;;;;;;;5.55;1.95;;;14.70;98.30;;;;;;5091714;28;20024;-30
2022/04/26 15:43:00;;;;;;;3.83;2.10;;;14.90;97.30;;;;;;5109833;27;20750;-35
2022/04/26 15:45:25;;;;;;;6.00;1.88;;;15.00;97.30;;;;;;5089504;28;20028;-36
2022/04/26 15:47:51;;;;;;;4.00;2.03;;;15.00;98.00;;;;;;5090590;28;20032;-37
2022/04/26 15:50:16;;;;;;;8.40;1.88;;;15.10;97.40;;;;;;5110415;28;20055;-36
2022/04/26 15:52:42;;;;;;;3.35;2.08;;;15.20;97.20;;;;;;5105516;28;20035;-35
2022/04/26 15:55:09;;;;;;;4.70;2.00;;;15.20;96.90;;;;;;5099747;28;20031;-34
2022/04/26 15:57:35;;;;;;;4.30;2.15;;;15.00;97.20;;;;;;5107648;28;20506;-35
2022/04/26 16:00:01;;;;;;;4.25;2.10;;;14.90;97.00;;;;;;5110850;28;20471;-36
2022/04/26 16:02:27;;;;;;;1.98;1.67;;;14.90;97.50;;;;;;5112667;28;20080;-35
2022/04/26 16:04:52;;;;;;;4.65;1.75;;;14.90;97.90;;;;;;5108715;28;20015;-36
2022/04/26 16:07:18;;;;;;;5.35;2.55;;;14.80;97.10;;;;;;5102790;28;20028;-37
2022/04/26 16:20:41;;;;;;;3.83;2.10;;;14.20;98.00;;;;;;5094348;28;20062;-37
2022/04/26 16:23:07;;;;;;;3.90;2.03;;;14.20;98.40;;;;;;5097874;28;20449;-35
2022/04/26 16:25:33;;;;;;;4.03;2.08;;;14.10;98.10;;;;;;5092152;28;20024;-37
2022/04/26 16:28:03;;;;;;;2.85;1.67;;;13.90;98.10;;;;;;5098371;28;20051;-44
2022/04/26 16:30:30;;;;;;;4.47;2.75;;;13.70;98.60;;;;;;5095406;28;20391;-41
2022/04/26 16:33:01;;;;;;;3.07;1.70;;;13.60;98.30;;;;;;5096773;28;20537;-36
2022/04/26 16:35:27;;;;;;;2.38;2.10;;;13.40;98.80;;;;;;5099142;28;20364;-29
2022/04/26 16:37:55;;;;;;;6.15;1.77;;;13.20;98.80;;;;;;5099105;28;20056;-32
2022/04/26 16:40:21;;;;;;;5.10;1.75;;;13.00;98.60;;;;;;5092190;28;20478;-32
2022/04/26 16:42:47;;;;;;;2.28;1.83;;;12.90;99.10;;;;;;5099318;28;20518;-46
2022/04/26 16:45:13;;;;;;;5.18;1.75;;;12.90;99.50;;;;;;5099217;28;20047;-46
2022/04/26 16:47:39;;;;;;;9.55;2.50;;;13.00;99.10;;;;;;5096162;28;20114;-37
2022/04/26 16:50:09;;;;;;;2.58;2.15;;;13.00;99.70;;;;;;5096444;28;20115;-36
2022/04/26 16:52:36;;;;;;;6.18;1.85;;;13.10;99.20;;;;;;5097715;28;20515;-33
2022/04/26 16:55:02;;;;;;;3.40;1.83;;;13.00;99.50;;;;;;5094768;28;20480;-37
2022/04/26 16:57:28;;;;;;;2.22;2.03;;;13.00;99.30;;;;;;5098111;28;20234;-36
2022/04/26 16:59:56;;;;;;;3.53;2.10;;;12.80;99.60;;;;;;5095686;28;20103;-36
2022/04/26 17:02:25;;;;;;;1.77;1.67;;;12.70;99.60;;;;;;5096813;28;20534;-35
2022/04/26 17:04:51;;;;;;;4.57;2.15;;;12.40;99.90;;;;;;5095776;28;20027;-36
2022/04/26 17:07:17;;;;;;;7.38;2.15;;;12.20;99.90;;;;;;5097717;28;20027;-36
2022/04/26 17:09:42;;;;;;;4.40;1.90;;;12.20;99.90;;;;;;5092229;28;20024;-35
2022/04/26 17:12:09;;;;;;;3.75;2.03;;;12.10;99.90;;;;;;5113256;28;20676;-36
2022/04/26 17:14:35;;;;;;;7.35;2.30;;;12.10;99.90;;;;;;5095563;28;20478;-36
2022/04/26 17:17:02;;;;;;;4.72;2.25;;;12.10;99.90;;;;;;5089572;28;20125;-33